Decoded Metar for KMEM (MEMPHIS in TN, USA) (IATA:MEM) | Meteo·Mobile Aviation Weather
aviador You're here:

KMEM Decoded Metar

MEMPHIS in TN, USA
Report Time2018-11-19 09:54:00
UTC Time2018-11-19 10:11:14
Flight Rules lifr LIFR
Wind290° at 06 kt
W.Decomp.*RWY 27: 5.7 kt HW 2.0 kt RCW
RWY 36: 2.0 kt HW 5.7 kt LCW
W.Rank290° ranks 34
Current wind is below 290° avg. (7.2)
Visibility4023 m
Phenomena:Light Rain
Mist
Clouds:Overcast 002 Hf
Ceiling200 ft
Temp08°C (ISA -6)
Dew Point08°C (100% RH)
AAT5.4°C
QNH1020 hPa
Density Alt-584 ft
Elevation282 ft
Report Wrong Elevation
Raw Report
METAR KMEM 190954Z 29006KT 2 1/2SM -RA BR OVC002 08/08 A3011 RMK AO2
RAB47 CIG 002V005 SLP193 P0000 T00830083=

Extra information for KMEM:More info

Metar Taf Metar & Taf Last 4 Metars F.Rules Stats Wind Profile Meteogram Temp Stats Airport Information Weather charts Add Link Nearby VenuesMetar ALERT Operation Metar Decoded Social comments

AIRNAV info for KMEM